sensor_id;sensor_type;location;lat;lon;timestamp;temperature;humidity
37002;DHT22;22913;51.910;8.374;2023-02-28T00:00:46;1.10;99.90
37002;DHT22;22913;51.910;8.374;2023-02-28T00:03:34;1.20;99.90
37002;DHT22;22913;51.910;8.374;2023-02-28T00:06:21;1.10;99.90
37002;DHT22;22913;51.910;8.374;2023-02-28T00:09:08;1.00;99.90
37002;DHT22;22913;51.910;8.374;2023-02-28T00:11:53;1.00;99.90
37002;DHT22;22913;51.910;8.374;2023-02-28T00:14:39;0.90;99.90
37002;DHT22;22913;51.910;8.374;2023-02-28T00:17:25;0.80;99.90
37002;DHT22;22913;51.910;8.374;2023-02-28T00:20:13;0.80;99.90
37002;DHT22;22913;51.910;8.374;2023-02-28T00:22:59;0.70;99.90
37002;DHT22;22913;51.910;8.374;2023-02-28T00:25:45;0.70;99.90
37002;DHT22;22913;51.910;8.374;2023-02-28T00:28:31;0.60;99.90
37002;DHT22;22913;51.910;8.374;2023-02-28T00:31:16;0.70;99.90
37002;DHT22;22913;51.910;8.374;2023-02-28T00:34:02;0.70;99.90
37002;DHT22;22913;51.910;8.374;2023-02-28T00:36:49;0.60;99.90
37002;DHT22;22913;51.910;8.374;2023-02-28T00:39:36;0.60;99.90
37002;DHT22;22913;51.910;8.374;2023-02-28T00:42:22;0.50;99.90
37002;DHT22;22913;51.910;8.374;2023-02-28T00:45:08;0.50;99.90
37002;DHT22;22913;51.910;8.374;2023-02-28T00:47:54;0.50;99.90
37002;DHT22;22913;51.910;8.374;2023-02-28T00:50:40;0.50;99.90
37002;DHT22;22913;51.910;8.374;2023-02-28T00:53:27;0.50;99.90
37002;DHT22;22913;51.910;8.374;2023-02-28T00:56:13;0.50;99.90
37002;DHT22;22913;51.910;8.374;2023-02-28T00:58:59;0.50;99.90
37002;DHT22;22913;51.910;8.374;2023-02-28T01:01:46;0.50;99.90
37002;DHT22;22913;51.910;8.374;2023-02-28T01:04:31;0.50;99.90
37002;DHT22;22913;51.910;8.374;2023-02-28T01:07:17;0.50;99.90
37002;DHT22;22913;51.910;8.374;2023-02-28T01:10:05;0.50;99.90
37002;DHT22;22913;51.910;8.374;2023-02-28T01:12:51;0.50;99.90
37002;DHT22;22913;51.910;8.374;2023-02-28T01:15:37;0.40;99.90
37002;DHT22;22913;51.910;8.374;2023-02-28T01:18:23;0.40;99.90
37002;DHT22;22913;51.910;8.374;2023-02-28T01:21:11;0.40;99.90
37002;DHT22;22913;51.910;8.374;2023-02-28T01:23:57;0.40;99.90
37002;DHT22;22913;51.910;8.374;2023-02-28T01:26:44;0.40;99.90
37002;DHT22;22913;51.910;8.374;2023-02-28T01:29:29;0.30;99.90
37002;DHT22;22913;51.910;8.374;2023-02-28T01:32:15;0.30;99.90
37002;DHT22;22913;51.910;8.374;2023-02-28T01:35:01;0.20;99.90
37002;DHT22;22913;51.910;8.374;2023-02-28T01:37:46;0.20;99.90
37002;DHT22;22913;51.910;8.374;2023-02-28T01:40:32;0.20;99.90
37002;DHT22;22913;51.910;8.374;2023-02-28T01:43:23;0.10;99.90
37002;DHT22;22913;51.910;8.374;2023-02-28T01:46:10;0.10;99.90
37002;DHT22;22913;51.910;8.374;2023-02-28T01:49:00;0.00;99.90
37002;DHT22;22913;51.910;8.374;2023-02-28T01:51:49;0.00;99.90
37002;DHT22;22913;51.910;8.374;2023-02-28T01:54:35;0.00;99.90
37002;DHT22;22913;51.910;8.374;2023-02-28T01:57:24;-0.10;99.90
37002;DHT22;22913;51.910;8.374;2023-02-28T02:00:14;-0.10;99.90
37002;DHT22;22913;51.910;8.374;2023-02-28T02:03:04;-0.20;99.90
37002;DHT22;22913;51.910;8.374;2023-02-28T02:05:51;-0.10;99.90
37002;DHT22;22913;51.910;8.374;2023-02-28T02:08:37;-0.20;99.90
37002;DHT22;22913;51.910;8.374;2023-02-28T02:11:24;-0.30;99.90
37002;DHT22;22913;51.910;8.374;2023-02-28T02:14:28;-0.40;99.90
37002;DHT22;22913;51.910;8.374;2023-02-28T02:17:26;-0.40;99.90
37002;DHT22;22913;51.910;8.374;2023-02-28T02:24:30;-0.40;99.90
37002;DHT22;22913;51.910;8.374;2023-02-28T02:30:53;-0.50;99.90
37002;DHT22;22913;51.910;8.374;2023-02-28T02:37:14;-0.50;99.90
37002;DHT22;22913;51.910;8.374;2023-02-28T02:40:05;-0.60;99.90
37002;DHT22;22913;51.910;8.374;2023-02-28T02:42:57;-0.70;99.90
37002;DHT22;22913;51.910;8.374;2023-02-28T02:45:47;-0.70;99.90
37002;DHT22;22913;51.910;8.374;2023-02-28T02:48:36;-0.70;99.90
37002;DHT22;22913;51.910;8.374;2023-02-28T02:51:24;-0.70;99.90
37002;DHT22;22913;51.910;8.374;2023-02-28T02:54:16;-0.80;99.90
37002;DHT22;22913;51.910;8.374;2023-02-28T02:57:05;-0.80;99.90
37002;DHT22;22913;51.910;8.374;2023-02-28T02:59:53;-0.90;99.90
37002;DHT22;22913;51.910;8.374;2023-02-28T03:02:40;-0.80;99.90
37002;DHT22;22913;51.910;8.374;2023-02-28T03:05:28;-0.90;99.90
37002;DHT22;22913;51.910;8.374;2023-02-28T03:08:17;-0.90;99.90
37002;DHT22;22913;51.910;8.374;2023-02-28T03:11:06;-1.00;99.90
37002;DHT22;22913;51.910;8.374;2023-02-28T03:14:17;-1.00;99.90
37002;DHT22;22913;51.910;8.374;2023-02-28T03:17:23;-1.10;99.90
37002;DHT22;22913;51.910;8.374;2023-02-28T03:20:17;-1.10;99.90
37002;DHT22;22913;51.910;8.374;2023-02-28T03:23:13;-1.10;99.90
37002;DHT22;22913;51.910;8.374;2023-02-28T03:26:06;-1.20;99.90
37002;DHT22;22913;51.910;8.374;2023-02-28T03:29:00;-1.20;99.90
37002;DHT22;22913;51.910;8.374;2023-02-28T03:31:50;-1.20;99.90
37002;DHT22;22913;51.910;8.374;2023-02-28T03:34:39;-1.20;99.90
37002;DHT22;22913;51.910;8.374;2023-02-28T03:37:28;-1.20;99.90
37002;DHT22;22913;51.910;8.374;2023-02-28T03:40:16;-1.20;99.90
37002;DHT22;22913;51.910;8.374;2023-02-28T03:43:10;-1.20;99.90
37002;DHT22;22913;51.910;8.374;2023-02-28T03:45:58;-1.30;99.90
37002;DHT22;22913;51.910;8.374;2023-02-28T03:48:48;-1.30;99.90
37002;DHT22;22913;51.910;8.374;2023-02-28T03:51:35;-1.30;99.90
37002;DHT22;22913;51.910;8.374;2023-02-28T03:54:26;-1.30;99.90
37002;DHT22;22913;51.910;8.374;2023-02-28T03:57:18;-1.30;99.90
37002;DHT22;22913;51.910;8.374;2023-02-28T04:00:11;-1.40;99.90
37002;DHT22;22913;51.910;8.374;2023-02-28T04:02:58;-1.40;99.90
37002;DHT22;22913;51.910;8.374;2023-02-28T04:05:49;-1.30;99.90
37002;DHT22;22913;51.910;8.374;2023-02-28T04:08:35;-1.40;99.90
37002;DHT22;22913;51.910;8.374;2023-02-28T04:11:23;-1.50;99.90
37002;DHT22;22913;51.910;8.374;2023-02-28T04:14:11;-1.50;99.90
37002;DHT22;22913;51.910;8.374;2023-02-28T04:16:58;-1.50;99.90
37002;DHT22;22913;51.910;8.374;2023-02-28T04:19:44;-1.50;99.90
37002;DHT22;22913;51.910;8.374;2023-02-28T04:22:30;-1.60;99.90
37002;DHT22;22913;51.910;8.374;2023-02-28T04:25:15;-1.60;99.90
37002;DHT22;22913;51.910;8.374;2023-02-28T04:28:01;-1.60;99.90
37002;DHT22;22913;51.910;8.374;2023-02-28T04:30:47;-1.70;99.90
37002;DHT22;22913;51.910;8.374;2023-02-28T04:33:34;-1.60;99.90
37002;DHT22;22913;51.910;8.374;2023-02-28T04:36:19;-1.70;99.90
37002;DHT22;22913;51.910;8.374;2023-02-28T04:39:07;-1.70;99.90
37002;DHT22;22913;51.910;8.374;2023-02-28T04:41:53;-1.70;99.90
37002;DHT22;22913;51.910;8.374;2023-02-28T04:44:39;-1.70;99.90
37002;DHT22;22913;51.910;8.374;2023-02-28T04:47:24;-1.70;99.90
37002;DHT22;22913;51.910;8.374;2023-02-28T04:50:11;-1.70;99.90
37002;DHT22;22913;51.910;8.374;2023-02-28T04:52:57;-1.80;99.90
37002;DHT22;22913;51.910;8.374;2023-02-28T04:55:43;-1.80;99.90
37002;DHT22;22913;51.910;8.374;2023-02-28T04:58:30;-1.80;99.90
37002;DHT22;22913;51.910;8.374;2023-02-28T05:01:22;-1.80;99.90
37002;DHT22;22913;51.910;8.374;2023-02-28T05:04:09;-1.80;99.90
37002;DHT22;22913;51.910;8.374;2023-02-28T05:06:56;-1.80;99.90
37002;DHT22;22913;51.910;8.374;2023-02-28T05:09:41;-1.80;99.90
37002;DHT22;22913;51.910;8.374;2023-02-28T05:12:27;-1.90;99.90
37002;DHT22;22913;51.910;8.374;2023-02-28T05:15:14;-1.90;99.90
37002;DHT22;22913;51.910;8.374;2023-02-28T05:17:59;-1.90;99.90
37002;DHT22;22913;51.910;8.374;2023-02-28T05:20:45;-1.90;99.90
37002;DHT22;22913;51.910;8.374;2023-02-28T05:23:32;-1.90;99.90
37002;DHT22;22913;51.910;8.374;2023-02-28T05:26:18;-1.90;99.90
37002;DHT22;22913;51.910;8.374;2023-02-28T05:29:04;-1.90;99.90
37002;DHT22;22913;51.910;8.374;2023-02-28T05:31:50;-2.00;99.90
37002;DHT22;22913;51.910;8.374;2023-02-28T05:34:36;-2.00;99.90
37002;DHT22;22913;51.910;8.374;2023-02-28T05:37:22;-2.00;99.90
37002;DHT22;22913;51.910;8.374;2023-02-28T05:40:10;-2.10;99.90
37002;DHT22;22913;51.910;8.374;2023-02-28T05:42:56;-2.10;99.90
37002;DHT22;22913;51.910;8.374;2023-02-28T05:45:42;-2.10;99.90
37002;DHT22;22913;51.910;8.374;2023-02-28T05:48:27;-2.10;99.90
37002;DHT22;22913;51.910;8.374;2023-02-28T05:51:13;-2.10;99.90
37002;DHT22;22913;51.910;8.374;2023-02-28T05:54:00;-2.20;99.90
37002;DHT22;22913;51.910;8.374;2023-02-28T05:56:47;-2.10;99.90
37002;DHT22;22913;51.910;8.374;2023-02-28T05:59:33;-2.10;99.90
37002;DHT22;22913;51.910;8.374;2023-02-28T06:02:18;-2.10;99.90
37002;DHT22;22913;51.910;8.374;2023-02-28T06:05:05;-2.10;99.90
37002;DHT22;22913;51.910;8.374;2023-02-28T06:07:50;-2.10;99.90
37002;DHT22;22913;51.910;8.374;2023-02-28T06:10:36;-2.10;99.90
37002;DHT22;22913;51.910;8.374;2023-02-28T06:13:23;-2.20;99.90
37002;DHT22;22913;51.910;8.374;2023-02-28T06:16:10;-2.10;99.90
37002;DHT22;22913;51.910;8.374;2023-02-28T06:18:57;-2.10;99.90
37002;DHT22;22913;51.910;8.374;2023-02-28T06:21:43;-2.10;99.90
37002;DHT22;22913;51.910;8.374;2023-02-28T06:24:28;-2.10;99.90
37002;DHT22;22913;51.910;8.374;2023-02-28T06:27:15;-2.10;99.90
37002;DHT22;22913;51.910;8.374;2023-02-28T06:30:02;-2.10;99.90
37002;DHT22;22913;51.910;8.374;2023-02-28T06:32:48;-2.00;99.90
37002;DHT22;22913;51.910;8.374;2023-02-28T06:35:34;-2.00;99.90
37002;DHT22;22913;51.910;8.374;2023-02-28T06:38:20;-2.00;99.90
37002;DHT22;22913;51.910;8.374;2023-02-28T06:41:05;-2.00;99.90
37002;DHT22;22913;51.910;8.374;2023-02-28T06:43:52;-1.90;99.90
37002;DHT22;22913;51.910;8.374;2023-02-28T06:46:40;-1.90;99.90
37002;DHT22;22913;51.910;8.374;2023-02-28T06:49:25;-1.90;99.90
37002;DHT22;22913;51.910;8.374;2023-02-28T06:52:11;-1.90;99.90
37002;DHT22;22913;51.910;8.374;2023-02-28T06:54:57;-1.90;99.90
37002;DHT22;22913;51.910;8.374;2023-02-28T06:57:45;-1.90;99.90
37002;DHT22;22913;51.910;8.374;2023-02-28T07:00:31;-1.80;99.90
37002;DHT22;22913;51.910;8.374;2023-02-28T07:03:18;-1.80;99.90
37002;DHT22;22913;51.910;8.374;2023-02-28T07:06:05;-1.80;99.90
37002;DHT22;22913;51.910;8.374;2023-02-28T07:08:52;-1.70;99.90
37002;DHT22;22913;51.910;8.374;2023-02-28T07:11:38;-1.70;99.90
37002;DHT22;22913;51.910;8.374;2023-02-28T07:14:23;-1.60;99.90
37002;DHT22;22913;51.910;8.374;2023-02-28T07:17:10;-1.50;99.90
37002;DHT22;22913;51.910;8.374;2023-02-28T07:19:57;-1.50;99.90
37002;DHT22;22913;51.910;8.374;2023-02-28T07:22:43;-1.40;99.90
37002;DHT22;22913;51.910;8.374;2023-02-28T07:25:29;-1.40;99.90
37002;DHT22;22913;51.910;8.374;2023-02-28T07:28:14;-1.40;99.90
37002;DHT22;22913;51.910;8.374;2023-02-28T07:31:04;-1.30;99.90
37002;DHT22;22913;51.910;8.374;2023-02-28T07:33:50;-1.20;99.90
37002;DHT22;22913;51.910;8.374;2023-02-28T07:36:37;-1.10;99.90
37002;DHT22;22913;51.910;8.374;2023-02-28T07:39:22;-1.00;99.90
37002;DHT22;22913;51.910;8.374;2023-02-28T07:42:08;-1.00;99.90
37002;DHT22;22913;51.910;8.374;2023-02-28T07:44:55;-0.90;99.90
37002;DHT22;22913;51.910;8.374;2023-02-28T07:47:42;-0.80;99.90
37002;DHT22;22913;51.910;8.374;2023-02-28T07:50:27;-0.80;99.90
37002;DHT22;22913;51.910;8.374;2023-02-28T07:53:16;-0.80;99.90
37002;DHT22;22913;51.910;8.374;2023-02-28T07:56:02;-0.60;99.90
37002;DHT22;22913;51.910;8.374;2023-02-28T07:58:48;-0.50;99.90
37002;DHT22;22913;51.910;8.374;2023-02-28T08:01:33;-0.40;99.90
37002;DHT22;22913;51.910;8.374;2023-02-28T08:04:19;-0.40;99.90
37002;DHT22;22913;51.910;8.374;2023-02-28T08:07:05;-0.20;99.90
37002;DHT22;22913;51.910;8.374;2023-02-28T08:09:52;-0.10;99.90
37002;DHT22;22913;51.910;8.374;2023-02-28T08:12:38;0.00;99.90
37002;DHT22;22913;51.910;8.374;2023-02-28T08:15:23;0.10;99.90
37002;DHT22;22913;51.910;8.374;2023-02-28T08:18:10;0.20;99.90
37002;DHT22;22913;51.910;8.374;2023-02-28T08:20:55;0.30;99.90
37002;DHT22;22913;51.910;8.374;2023-02-28T08:23:41;0.40;99.90
37002;DHT22;22913;51.910;8.374;2023-02-28T08:26:28;0.50;99.90
37002;DHT22;22913;51.910;8.374;2023-02-28T08:29:14;0.60;99.90
37002;DHT22;22913;51.910;8.374;2023-02-28T08:32:00;0.80;99.90
37002;DHT22;22913;51.910;8.374;2023-02-28T08:34:45;0.90;99.90
37002;DHT22;22913;51.910;8.374;2023-02-28T08:37:31;1.00;99.90
37002;DHT22;22913;51.910;8.374;2023-02-28T08:40:17;1.10;99.90
37002;DHT22;22913;51.910;8.374;2023-02-28T08:43:04;1.20;99.90
37002;DHT22;22913;51.910;8.374;2023-02-28T08:45:51;1.30;99.90
37002;DHT22;22913;51.910;8.374;2023-02-28T08:48:37;1.40;99.90
37002;DHT22;22913;51.910;8.374;2023-02-28T08:51:23;1.60;99.90
37002;DHT22;22913;51.910;8.374;2023-02-28T08:54:11;1.70;99.90
37002;DHT22;22913;51.910;8.374;2023-02-28T08:56:57;1.80;99.90
37002;DHT22;22913;51.910;8.374;2023-02-28T08:59:44;1.90;99.90
37002;DHT22;22913;51.910;8.374;2023-02-28T09:02:30;2.10;99.90
37002;DHT22;22913;51.910;8.374;2023-02-28T09:05:16;2.20;99.90
37002;DHT22;22913;51.910;8.374;2023-02-28T09:08:02;2.20;99.90
37002;DHT22;22913;51.910;8.374;2023-02-28T09:10:47;2.40;99.90
37002;DHT22;22913;51.910;8.374;2023-02-28T09:13:33;2.40;99.90
37002;DHT22;22913;51.910;8.374;2023-02-28T09:16:20;2.60;99.90
37002;DHT22;22913;51.910;8.374;2023-02-28T09:19:06;2.60;99.90
37002;DHT22;22913;51.910;8.374;2023-02-28T09:21:51;2.70;99.90
37002;DHT22;22913;51.910;8.374;2023-02-28T09:24:38;2.80;99.90
37002;DHT22;22913;51.910;8.374;2023-02-28T09:27:24;3.00;99.90
37002;DHT22;22913;51.910;8.374;2023-02-28T09:30:10;3.10;99.90
37002;DHT22;22913;51.910;8.374;2023-02-28T09:32:58;3.30;99.90
37002;DHT22;22913;51.910;8.374;2023-02-28T09:35:43;3.40;99.90
37002;DHT22;22913;51.910;8.374;2023-02-28T09:38:29;3.50;99.90
37002;DHT22;22913;51.910;8.374;2023-02-28T09:41:16;3.70;99.90
37002;DHT22;22913;51.910;8.374;2023-02-28T09:44:04;3.80;99.90
37002;DHT22;22913;51.910;8.374;2023-02-28T09:46:57;3.90;99.90
37002;DHT22;22913;51.910;8.374;2023-02-28T09:49:47;4.00;99.90
37002;DHT22;22913;51.910;8.374;2023-02-28T09:52:33;4.10;99.90
37002;DHT22;22913;51.910;8.374;2023-02-28T09:55:25;4.20;99.90
37002;DHT22;22913;51.910;8.374;2023-02-28T09:58:18;4.20;99.90
37002;DHT22;22913;51.910;8.374;2023-02-28T10:01:10;4.30;99.90
37002;DHT22;22913;51.910;8.374;2023-02-28T10:04:00;4.40;99.90
37002;DHT22;22913;51.910;8.374;2023-02-28T10:06:51;4.50;99.90
37002;DHT22;22913;51.910;8.374;2023-02-28T10:09:38;4.70;99.90
37002;DHT22;22913;51.910;8.374;2023-02-28T10:12:24;4.80;99.90
37002;DHT22;22913;51.910;8.374;2023-02-28T10:15:14;4.90;99.90
37002;DHT22;22913;51.910;8.374;2023-02-28T10:18:03;4.90;99.90
37002;DHT22;22913;51.910;8.374;2023-02-28T10:20:51;5.00;99.90
37002;DHT22;22913;51.910;8.374;2023-02-28T10:23:38;5.00;99.90
37002;DHT22;22913;51.910;8.374;2023-02-28T10:26:26;5.00;99.90
37002;DHT22;22913;51.910;8.374;2023-02-28T10:29:14;5.10;99.90
37002;DHT22;22913;51.910;8.374;2023-02-28T10:32:01;5.20;99.90
37002;DHT22;22913;51.910;8.374;2023-02-28T10:34:51;5.40;99.90
37002;DHT22;22913;51.910;8.374;2023-02-28T10:37:40;5.60;99.90
37002;DHT22;22913;51.910;8.374;2023-02-28T10:40:31;5.70;99.90
37002;DHT22;22913;51.910;8.374;2023-02-28T10:43:21;5.80;99.90
37002;DHT22;22913;51.910;8.374;2023-02-28T10:46:16;5.90;99.90
37002;DHT22;22913;51.910;8.374;2023-02-28T10:49:14;6.10;99.90
37002;DHT22;22913;51.910;8.374;2023-02-28T10:52:02;6.20;99.90
37002;DHT22;22913;51.910;8.374;2023-02-28T10:54:48;6.30;99.90
37002;DHT22;22913;51.910;8.374;2023-02-28T10:57:35;6.60;99.90
37002;DHT22;22913;51.910;8.374;2023-02-28T11:00:22;6.80;99.90
37002;DHT22;22913;51.910;8.374;2023-02-28T11:03:24;7.00;99.90
37002;DHT22;22913;51.910;8.374;2023-02-28T11:06:16;7.20;99.90
37002;DHT22;22913;51.910;8.374;2023-02-28T11:09:04;7.40;99.90
37002;DHT22;22913;51.910;8.374;2023-02-28T11:11:51;7.50;99.90
37002;DHT22;22913;51.910;8.374;2023-02-28T11:14:47;7.80;99.90
37002;DHT22;22913;51.910;8.374;2023-02-28T11:17:34;7.90;99.90
37002;DHT22;22913;51.910;8.374;2023-02-28T11:20:22;8.20;99.90
37002;DHT22;22913;51.910;8.374;2023-02-28T11:23:12;8.70;99.90
37002;DHT22;22913;51.910;8.374;2023-02-28T11:26:02;9.00;99.90
37002;DHT22;22913;51.910;8.374;2023-02-28T11:29:03;9.40;99.90
37002;DHT22;22913;51.910;8.374;2023-02-28T11:32:06;9.90;99.90
37002;DHT22;22913;51.910;8.374;2023-02-28T11:35:02;10.20;99.90
37002;DHT22;22913;51.910;8.374;2023-02-28T11:37:48;10.70;99.90
37002;DHT22;22913;51.910;8.374;2023-02-28T11:40:42;10.90;99.90
37002;DHT22;22913;51.910;8.374;2023-02-28T11:43:38;11.50;99.90
37002;DHT22;22913;51.910;8.374;2023-02-28T11:46:33;12.20;99.90
37002;DHT22;22913;51.910;8.374;2023-02-28T11:49:34;12.70;99.90
37002;DHT22;22913;51.910;8.374;2023-02-28T11:52:29;13.10;99.90
37002;DHT22;22913;51.910;8.374;2023-02-28T11:55:23;13.30;99.90
37002;DHT22;22913;51.910;8.374;2023-02-28T11:58:33;13.70;99.90
37002;DHT22;22913;51.910;8.374;2023-02-28T12:01:30;14.10;99.90
37002;DHT22;22913;51.910;8.374;2023-02-28T12:04:25;13.70;99.90
37002;DHT22;22913;51.910;8.374;2023-02-28T12:07:20;13.30;99.90
37002;DHT22;22913;51.910;8.374;2023-02-28T12:10:20;14.10;99.90
37002;DHT22;22913;51.910;8.374;2023-02-28T12:13:16;14.40;99.90
37002;DHT22;22913;51.910;8.374;2023-02-28T12:16:25;14.90;97.90
37002;DHT22;22913;51.910;8.374;2023-02-28T12:19:19;15.20;97.40
37002;DHT22;22913;51.910;8.374;2023-02-28T12:22:27;15.70;94.90
37002;DHT22;22913;51.910;8.374;2023-02-28T12:25:55;16.20;93.60
37002;DHT22;22913;51.910;8.374;2023-02-28T12:28:46;16.00;92.30
37002;DHT22;22913;51.910;8.374;2023-02-28T12:31:35;15.70;92.40
37002;DHT22;22913;51.910;8.374;2023-02-28T12:34:27;15.60;92.00
37002;DHT22;22913;51.910;8.374;2023-02-28T12:37:19;15.40;92.90
37002;DHT22;22913;51.910;8.374;2023-02-28T12:40:12;14.70;92.80
37002;DHT22;22913;51.910;8.374;2023-02-28T12:43:02;14.00;94.50
37002;DHT22;22913;51.910;8.374;2023-02-28T12:45:51;13.70;95.20
37002;DHT22;22913;51.910;8.374;2023-02-28T12:48:41;13.60;95.10
37002;DHT22;22913;51.910;8.374;2023-02-28T12:51:28;14.20;93.90
37002;DHT22;22913;51.910;8.374;2023-02-28T12:54:21;15.00;93.00
37002;DHT22;22913;51.910;8.374;2023-02-28T12:57:13;15.60;91.80
37002;DHT22;22913;51.910;8.374;2023-02-28T13:00:03;16.00;92.20
37002;DHT22;22913;51.910;8.374;2023-02-28T13:03:19;16.10;91.00
37002;DHT22;22913;51.910;8.374;2023-02-28T13:06:37;16.70;90.00
37002;DHT22;22913;51.910;8.374;2023-02-28T13:09:27;17.00;86.00
37002;DHT22;22913;51.910;8.374;2023-02-28T13:12:15;16.80;85.80
37002;DHT22;22913;51.910;8.374;2023-02-28T13:15:06;17.20;84.20
37002;DHT22;22913;51.910;8.374;2023-02-28T13:17:58;17.40;83.20
37002;DHT22;22913;51.910;8.374;2023-02-28T13:20:47;17.60;82.00
37002;DHT22;22913;51.910;8.374;2023-02-28T13:24:00;18.00;81.10
37002;DHT22;22913;51.910;8.374;2023-02-28T13:27:19;18.40;79.70
37002;DHT22;22913;51.910;8.374;2023-02-28T13:33:31;19.20;76.30
37002;DHT22;22913;51.910;8.374;2023-02-28T13:36:26;19.00;74.60
37002;DHT22;22913;51.910;8.374;2023-02-28T13:39:46;18.60;73.30
37002;DHT22;22913;51.910;8.374;2023-02-28T13:42:35;18.40;73.90
37002;DHT22;22913;51.910;8.374;2023-02-28T13:45:26;18.60;73.00
37002;DHT22;22913;51.910;8.374;2023-02-28T13:48:18;18.70;72.30
37002;DHT22;22913;51.910;8.374;2023-02-28T13:51:35;19.10;71.60
37002;DHT22;22913;51.910;8.374;2023-02-28T13:54:33;19.10;71.70
37002;DHT22;22913;51.910;8.374;2023-02-28T13:57:31;18.80;70.70
37002;DHT22;22913;51.910;8.374;2023-02-28T14:00:31;19.00;71.50
37002;DHT22;22913;51.910;8.374;2023-02-28T14:03:43;19.10;70.40
37002;DHT22;22913;51.910;8.374;2023-02-28T14:06:35;18.90;69.20
37002;DHT22;22913;51.910;8.374;2023-02-28T14:09:24;18.40;69.60
37002;DHT22;22913;51.910;8.374;2023-02-28T14:15:43;18.80;69.80
37002;DHT22;22913;51.910;8.374;2023-02-28T14:18:32;18.80;69.00
37002;DHT22;22913;51.910;8.374;2023-02-28T14:21:23;18.40;68.60
37002;DHT22;22913;51.910;8.374;2023-02-28T14:27:29;18.60;68.90
37002;DHT22;22913;51.910;8.374;2023-02-28T14:30:52;18.70;69.70
37002;DHT22;22913;51.910;8.374;2023-02-28T14:34:02;18.90;69.70
37002;DHT22;22913;51.910;8.374;2023-02-28T14:36:50;19.00;69.20
37002;DHT22;22913;51.910;8.374;2023-02-28T14:39:40;19.90;68.10
37002;DHT22;22913;51.910;8.374;2023-02-28T14:42:30;19.90;68.20
37002;DHT22;22913;51.910;8.374;2023-02-28T14:45:20;19.90;67.10
37002;DHT22;22913;51.910;8.374;2023-02-28T14:48:09;19.80;67.60
37002;DHT22;22913;51.910;8.374;2023-02-28T14:50:57;19.40;67.40
37002;DHT22;22913;51.910;8.374;2023-02-28T14:53:44;19.20;67.30
37002;DHT22;22913;51.910;8.374;2023-02-28T14:56:35;19.90;68.50
37002;DHT22;22913;51.910;8.374;2023-02-28T14:59:28;20.10;67.90
37002;DHT22;22913;51.910;8.374;2023-02-28T15:02:16;20.40;66.40
37002;DHT22;22913;51.910;8.374;2023-02-28T15:05:23;20.20;66.00
37002;DHT22;22913;51.910;8.374;2023-02-28T15:08:12;20.60;66.10
37002;DHT22;22913;51.910;8.374;2023-02-28T15:11:00;20.60;65.20
37002;DHT22;22913;51.910;8.374;2023-02-28T15:13:48;20.80;64.60
37002;DHT22;22913;51.910;8.374;2023-02-28T15:16:37;20.70;64.40
37002;DHT22;22913;51.910;8.374;2023-02-28T15:19:26;20.50;63.70
37002;DHT22;22913;51.910;8.374;2023-02-28T15:22:19;19.80;63.10
37002;DHT22;22913;51.910;8.374;2023-02-28T15:25:07;19.20;63.80
37002;DHT22;22913;51.910;8.374;2023-02-28T15:27:56;19.20;65.10
37002;DHT22;22913;51.910;8.374;2023-02-28T15:30:52;19.10;64.90
37002;DHT22;22913;51.910;8.374;2023-02-28T15:33:52;19.00;65.00
37002;DHT22;22913;51.910;8.374;2023-02-28T15:36:37;19.10;64.40
37002;DHT22;22913;51.910;8.374;2023-02-28T15:39:28;19.00;64.50
37002;DHT22;22913;51.910;8.374;2023-02-28T15:42:18;18.90;64.80
37002;DHT22;22913;51.910;8.374;2023-02-28T15:45:05;18.80;64.60
37002;DHT22;22913;51.910;8.374;2023-02-28T15:47:51;18.80;64.60
37002;DHT22;22913;51.910;8.374;2023-02-28T15:50:37;18.90;64.50
37002;DHT22;22913;51.910;8.374;2023-02-28T15:53:26;19.00;65.70
37002;DHT22;22913;51.910;8.374;2023-02-28T15:56:22;18.80;65.30
37002;DHT22;22913;51.910;8.374;2023-02-28T15:59:15;17.80;66.50
37002;DHT22;22913;51.910;8.374;2023-02-28T16:02:13;17.40;67.20
37002;DHT22;22913;51.910;8.374;2023-02-28T16:05:12;17.10;67.70
37002;DHT22;22913;51.910;8.374;2023-02-28T16:08:11;17.10;67.60
37002;DHT22;22913;51.910;8.374;2023-02-28T16:10:58;16.60;68.50
37002;DHT22;22913;51.910;8.374;2023-02-28T16:13:45;16.50;69.30
37002;DHT22;22913;51.910;8.374;2023-02-28T16:16:31;16.40;69.50
37002;DHT22;22913;51.910;8.374;2023-02-28T16:19:18;16.20;69.90
37002;DHT22;22913;51.910;8.374;2023-02-28T16:22:05;15.80;71.00
37002;DHT22;22913;51.910;8.374;2023-02-28T16:24:50;15.60;70.70
37002;DHT22;22913;51.910;8.374;2023-02-28T16:27:37;15.40;70.90
37002;DHT22;22913;51.910;8.374;2023-02-28T16:30:25;14.90;71.60
37002;DHT22;22913;51.910;8.374;2023-02-28T16:33:11;14.60;72.10
37002;DHT22;22913;51.910;8.374;2023-02-28T16:35:57;14.10;73.00
37002;DHT22;22913;51.910;8.374;2023-02-28T16:38:43;13.30;74.40
37002;DHT22;22913;51.910;8.374;2023-02-28T16:41:29;12.60;76.80
37002;DHT22;22913;51.910;8.374;2023-02-28T16:44:23;11.90;79.90
37002;DHT22;22913;51.910;8.374;2023-02-28T16:47:12;11.30;81.60
37002;DHT22;22913;51.910;8.374;2023-02-28T16:49:58;10.80;84.20
37002;DHT22;22913;51.910;8.374;2023-02-28T16:52:44;10.10;86.90
37002;DHT22;22913;51.910;8.374;2023-02-28T16:55:29;9.70;90.20
37002;DHT22;22913;51.910;8.374;2023-02-28T16:58:16;9.50;90.60
37002;DHT22;22913;51.910;8.374;2023-02-28T17:01:03;9.10;91.70
37002;DHT22;22913;51.910;8.374;2023-02-28T17:03:50;8.80;92.60
37002;DHT22;22913;51.910;8.374;2023-02-28T17:06:36;8.50;93.60
37002;DHT22;22913;51.910;8.374;2023-02-28T17:09:22;8.40;94.70
37002;DHT22;22913;51.910;8.374;2023-02-28T17:12:09;8.20;95.50
37002;DHT22;22913;51.910;8.374;2023-02-28T17:14:55;8.00;96.30
37002;DHT22;22913;51.910;8.374;2023-02-28T17:17:41;7.80;97.30
37002;DHT22;22913;51.910;8.374;2023-02-28T17:20:28;7.60;98.30
37002;DHT22;22913;51.910;8.374;2023-02-28T17:23:13;7.30;99.60
37002;DHT22;22913;51.910;8.374;2023-02-28T17:25:59;7.10;99.90
37002;DHT22;22913;51.910;8.374;2023-02-28T17:28:45;7.00;99.90
37002;DHT22;22913;51.910;8.374;2023-02-28T17:31:31;6.90;99.90
37002;DHT22;22913;51.910;8.374;2023-02-28T17:34:22;6.70;99.90
37002;DHT22;22913;51.910;8.374;2023-02-28T17:37:10;6.60;99.90
37002;DHT22;22913;51.910;8.374;2023-02-28T17:39:55;6.50;99.90
37002;DHT22;22913;51.910;8.374;2023-02-28T17:42:41;6.40;99.90
37002;DHT22;22913;51.910;8.374;2023-02-28T17:45:26;6.30;99.90
37002;DHT22;22913;51.910;8.374;2023-02-28T17:48:12;6.10;99.90
37002;DHT22;22913;51.910;8.374;2023-02-28T17:50:57;6.00;99.90
37002;DHT22;22913;51.910;8.374;2023-02-28T17:53:45;5.90;99.90
37002;DHT22;22913;51.910;8.374;2023-02-28T17:56:31;5.80;99.90
37002;DHT22;22913;51.910;8.374;2023-02-28T17:59:16;5.70;99.90
37002;DHT22;22913;51.910;8.374;2023-02-28T18:02:02;5.60;99.90
37002;DHT22;22913;51.910;8.374;2023-02-28T18:04:49;5.40;99.90
37002;DHT22;22913;51.910;8.374;2023-02-28T18:07:35;5.40;99.90
37002;DHT22;22913;51.910;8.374;2023-02-28T18:10:23;5.20;99.90
37002;DHT22;22913;51.910;8.374;2023-02-28T18:13:09;5.20;99.90
37002;DHT22;22913;51.910;8.374;2023-02-28T18:15:55;5.20;99.90
37002;DHT22;22913;51.910;8.374;2023-02-28T18:18:42;5.10;99.90